createdAt,value
2019-01-06T00:01:23.937Z,10.50
2019-01-06T00:04:24.500Z,11.33
2019-01-06T00:07:11.439Z,11.23
2019-01-06T00:10:08.960Z,11.07
2019-01-06T00:13:03.641Z,11.10
2019-01-06T00:15:54.906Z,11.20
2019-01-06T00:18:41.474Z,11.33
2019-01-06T00:21:29.721Z,11.77
2019-01-06T00:27:08.137Z,10.33
2019-01-06T00:29:54.944Z,10.73
2019-01-06T00:32:42.002Z,9.63
2019-01-06T00:35:33.191Z,10.60
2019-01-06T00:38:36.898Z,10.30
2019-01-06T00:41:27.939Z,9.57
2019-01-06T00:44:14.705Z,9.57
2019-01-06T00:47:05.962Z,10.40
2019-01-06T00:49:53.115Z,10.40
2019-01-06T00:52:39.980Z,9.37
2019-01-06T00:55:34.353Z,9.73
2019-01-06T01:01:38.802Z,9.03
2019-01-06T01:04:25.497Z,8.83
2019-01-06T01:07:32.071Z,8.53
2019-01-06T01:10:18.410Z,9.43
2019-01-06T01:13:05.086Z,8.73
2019-01-06T01:19:04.233Z,8.20
2019-01-06T01:22:01.349Z,7.73
2019-01-06T01:24:56.806Z,7.63
2019-01-06T01:27:48.080Z,7.37
2019-01-06T01:30:39.156Z,7.80
2019-01-06T01:33:27.333Z,7.90
2019-01-06T01:36:33.786Z,7.20
2019-01-06T01:39:35.366Z,8.00
2019-01-06T01:42:32.662Z,7.17
2019-01-06T01:45:20.550Z,6.80
2019-01-06T01:48:08.564Z,6.87
2019-01-06T01:50:56.870Z,6.93
2019-01-06T01:53:51.311Z,6.00
2019-01-06T01:56:38.200Z,6.57
2019-01-06T01:59:26.629Z,6.93
2019-01-06T02:02:20.815Z,6.60
2019-01-06T02:05:12.157Z,6.33
2019-01-06T02:08:00.322Z,7.10
2019-01-06T02:10:47.047Z,7.00
2019-01-06T02:13:38.482Z,6.03
2019-01-06T02:16:26.745Z,7.37
2019-01-06T02:19:14.485Z,7.20
2019-01-06T02:22:05.802Z,6.70
2019-01-06T02:24:52.617Z,6.47
2019-01-06T02:27:43.826Z,6.77
2019-01-06T02:33:53.233Z,6.80
2019-01-06T02:36:50.582Z,6.80
2019-01-06T02:39:45.053Z,6.43
2019-01-06T02:42:31.709Z,6.53
2019-01-06T02:45:26.166Z,7.30
2019-01-06T02:48:14.446Z,6.70
2019-01-06T02:51:02.117Z,6.70
2019-01-06T02:53:48.985Z,7.03
2019-01-06T02:56:46.470Z,6.80
2019-01-06T03:02:34.093Z,7.07
2019-01-06T03:05:28.474Z,7.27
2019-01-06T03:08:27.118Z,6.80
2019-01-06T03:11:22.104Z,7.10
2019-01-06T03:14:09.596Z,6.30
2019-01-06T03:17:03.930Z,6.97
2019-01-06T03:19:52.153Z,7.63
2019-01-06T03:22:52.605Z,6.27
2019-01-06T03:25:42.578Z,5.93
2019-01-06T03:28:29.183Z,6.60
2019-01-06T03:31:17.468Z,6.27
2019-01-06T03:34:11.564Z,6.47
2019-01-06T03:36:59.810Z,5.70
2019-01-06T03:39:47.575Z,6.33
2019-01-06T03:42:48.102Z,6.00
2019-01-06T03:45:48.430Z,5.33
2019-01-06T03:48:35.181Z,5.07
2019-01-06T03:51:26.471Z,5.50
2019-01-06T03:54:20.545Z,5.10
2019-01-06T03:57:07.338Z,5.33
2019-01-06T04:00:00.781Z,4.63
2019-01-06T04:02:39.617Z,4.57
2019-01-06T04:05:33.834Z,5.07
2019-01-06T04:08:37.210Z,5.10
2019-01-06T04:11:40.317Z,5.20
2019-01-06T04:14:46.251Z,4.87
2019-01-06T04:17:33.154Z,4.57
2019-01-06T04:20:27.428Z,5.10
2019-01-06T04:23:21.756Z,4.50
2019-01-06T04:26:19.121Z,4.70
2019-01-06T04:29:20.677Z,5.00
2019-01-06T04:32:26.849Z,4.03
2019-01-06T04:35:37.737Z,4.60
2019-01-06T04:38:28.933Z,3.47
2019-01-06T04:41:35.353Z,3.93
2019-01-06T04:44:23.628Z,3.90
2019-01-06T04:50:06.619Z,3.50
2019-01-06T04:53:09.907Z,3.37
2019-01-06T04:55:53.106Z,3.17
2019-01-06T04:58:41.868Z,3.37
2019-01-06T05:01:30.090Z,3.73
2019-01-06T05:04:30.182Z,3.37
2019-01-06T05:07:30.583Z,3.20
2019-01-06T05:10:25.865Z,3.35
2019-01-06T05:13:08.466Z,3.45
2019-01-06T05:16:08.404Z,3.00
2019-01-06T05:18:59.674Z,2.60
2019-01-06T05:22:02.913Z,3.08
2019-01-06T05:24:48.913Z,2.75
2019-01-06T05:27:40.778Z,2.92
2019-01-06T05:30:31.982Z,2.65
2019-01-06T05:33:18.977Z,2.95
2019-01-06T05:36:05.777Z,2.42
2019-01-06T05:39:03.093Z,2.33
2019-01-06T05:45:15.370Z,3.20
2019-01-06T05:48:09.557Z,2.58
2019-01-06T05:51:07.077Z,2.60
2019-01-06T05:53:54.449Z,2.40
2019-01-06T05:56:39.485Z,2.55
2019-01-06T05:59:30.436Z,2.17
2019-01-06T06:02:12.667Z,2.45
2019-01-06T06:05:05.230Z,2.50
2019-01-06T06:08:02.393Z,2.55
2019-01-06T06:10:53.884Z,2.45
2019-01-06T06:13:42.206Z,2.50
2019-01-06T06:16:47.294Z,1.72
2019-01-06T06:19:33.911Z,2.75
2019-01-06T06:22:31.206Z,2.35
2019-01-06T06:25:25.470Z,2.95
2019-01-06T06:28:12.426Z,2.30
2019-01-06T06:31:04.022Z,2.22
2019-01-06T06:34:07.472Z,1.80
2019-01-06T06:37:04.831Z,2.67
2019-01-06T06:40:02.179Z,2.85
2019-01-06T06:42:53.813Z,1.60
2019-01-06T06:45:51.144Z,2.52
2019-01-06T06:48:47.838Z,2.15
2019-01-06T06:51:31.686Z,2.30
2019-01-06T06:54:18.327Z,2.50
2019-01-06T06:57:14.982Z,2.65
2019-01-06T07:00:30.868Z,2.33
2019-01-06T07:03:28.289Z,2.60
2019-01-06T07:06:28.773Z,2.22
2019-01-06T07:15:01.820Z,2.30
2019-01-06T07:18:15.115Z,2.25
2019-01-06T07:21:03.142Z,3.02
2019-01-06T07:23:50.250Z,2.50
2019-01-06T07:26:47.174Z,3.10
2019-01-06T07:29:35.530Z,2.55
2019-01-06T07:32:23.148Z,2.90
2019-01-06T07:38:08.443Z,2.58
2019-01-06T07:40:55.292Z,3.12
2019-01-06T07:43:43.628Z,3.17
2019-01-06T07:46:29.586Z,2.27
2019-01-06T07:49:30.097Z,3.10
2019-01-06T07:52:18.343Z,2.62
2019-01-06T07:55:12.533Z,2.92
2019-01-06T07:58:00.729Z,3.20
2019-01-06T08:01:04.084Z,4.08
2019-01-06T08:03:50.633Z,3.50
2019-01-06T08:06:47.097Z,3.50
2019-01-06T08:09:42.995Z,3.87
2019-01-06T08:12:43.532Z,4.00
2019-01-06T08:15:13.079Z,3.98
2019-01-06T08:18:04.223Z,3.25
2019-01-06T08:20:52.450Z,3.05
2019-01-06T08:23:43.577Z,3.25
2019-01-06T08:26:31.757Z,3.80
2019-01-06T08:29:23.216Z,3.58
2019-01-06T08:35:01.849Z,3.33
2019-01-06T08:37:50.219Z,2.58
2019-01-06T08:40:37.083Z,3.08
2019-01-06T08:43:28.278Z,3.22
2019-01-06T08:46:27.499Z,3.62
2019-01-06T08:49:14.164Z,4.28
2019-01-06T08:52:01.074Z,3.47
2019-01-06T08:55:01.483Z,3.83
2019-01-06T08:57:59.978Z,3.47
2019-01-06T09:00:49.823Z,3.90
2019-01-06T09:03:39.276Z,3.85
2019-01-06T09:06:30.578Z,3.75
2019-01-06T09:09:45.787Z,2.60
2019-01-06T09:12:34.122Z,2.70
2019-01-06T09:15:25.530Z,2.35
2019-01-06T09:18:26.494Z,1.50
2019-01-06T09:21:14.925Z,1.35
2019-01-06T09:24:15.080Z,2.00
2019-01-06T09:27:03.337Z,1.62
2019-01-06T09:29:57.477Z,1.87
2019-01-06T09:33:03.712Z,1.85
2019-01-06T09:35:47.478Z,1.62
2019-01-06T09:38:31.957Z,1.67
2019-01-06T09:41:18.969Z,1.82
2019-01-06T09:44:10.455Z,2.27
2019-01-06T09:47:13.908Z,2.08
2019-01-06T09:50:04.942Z,1.70
2019-01-06T09:52:49.194Z,1.57
2019-01-06T09:58:26.541Z,1.35
2019-01-06T10:01:29.974Z,1.77
2019-01-06T10:04:35.191Z,2.30
2019-01-06T10:07:23.265Z,2.22
2019-01-06T10:10:17.351Z,2.02
2019-01-06T10:13:08.389Z,2.02
2019-01-06T10:15:55.247Z,2.00
2019-01-06T10:18:45.119Z,1.45
2019-01-06T10:21:36.240Z,1.65
2019-01-06T10:24:30.488Z,1.60
2019-01-06T10:27:17.174Z,1.62
2019-01-06T10:30:13.343Z,1.57
2019-01-06T10:33:07.604Z,1.35
2019-01-06T10:35:54.570Z,1.40
2019-01-06T10:38:41.483Z,1.67
2019-01-06T10:41:42.073Z,1.50
2019-01-06T10:44:28.934Z,1.65
2019-01-06T10:47:18.862Z,1.52
2019-01-06T10:50:05.674Z,2.10
2019-01-06T10:52:52.822Z,1.32
2019-01-06T10:55:54.764Z,2.05
2019-01-06T10:58:42.013Z,1.72
2019-01-06T11:01:30.346Z,1.92
2019-01-06T11:04:20.763Z,2.62
2019-01-06T11:10:12.616Z,2.20
2019-01-06T11:12:59.490Z,2.95
2019-01-06T11:15:47.853Z,2.17
2019-01-06T11:18:48.015Z,3.37
2019-01-06T11:21:36.292Z,3.58
2019-01-06T11:24:27.354Z,4.05
2019-01-06T11:27:14.456Z,3.85
2019-01-06T11:30:09.013Z,4.58
2019-01-06T11:33:00.493Z,3.20
2019-01-06T11:35:39.063Z,4.90
2019-01-06T11:38:26.503Z,4.85
2019-01-06T11:41:17.326Z,6.45
2019-01-06T11:44:25.558Z,6.65
2019-01-06T11:47:29.257Z,6.97
2019-01-06T11:50:16.815Z,5.83
2019-01-06T11:53:09.218Z,5.67
2019-01-06T11:55:57.735Z,6.95
2019-01-06T11:58:44.542Z,7.90
2019-01-06T12:01:52.341Z,7.65
2019-01-06T12:04:40.052Z,7.35
2019-01-06T12:16:16.240Z,14.80
2019-01-06T12:18:50.591Z,17.50
2019-01-06T12:21:21.684Z,14.87
2019-01-06T12:23:51.625Z,12.55
2019-01-06T12:30:06.789Z,13.05
2019-01-06T12:32:59.386Z,16.30
2019-01-06T12:35:49.079Z,15.32
2019-01-06T12:47:15.953Z,19.30
2019-01-06T12:50:04.155Z,15.90
2019-01-06T12:52:51.771Z,18.85
2019-01-06T12:55:46.036Z,19.40
2019-01-06T12:58:32.987Z,19.82
2019-01-06T13:01:28.486Z,19.67
2019-01-06T13:04:34.930Z,21.27
2019-01-06T13:07:35.186Z,19.60
2019-01-06T13:10:37.109Z,24.00
2019-01-06T13:13:25.244Z,25.10
2019-01-06T13:16:13.517Z,23.27
2019-01-06T13:19:10.591Z,21.77
2019-01-06T13:21:58.881Z,26.03
2019-01-06T13:27:57.005Z,22.43
2019-01-06T13:30:45.429Z,22.60
2019-01-06T13:33:33.953Z,21.27
2019-01-06T13:36:37.508Z,25.53
2019-01-06T13:39:29.333Z,26.80
2019-01-06T13:42:17.897Z,24.77
2019-01-06T13:45:15.143Z,22.73
2019-01-06T13:48:17.288Z,20.50
2019-01-06T13:51:14.386Z,23.87
2019-01-06T13:57:08.078Z,20.57
2019-01-06T14:00:08.549Z,21.80
2019-01-06T14:02:56.738Z,22.43
2019-01-06T14:05:45.055Z,16.17
2019-01-06T14:08:33.362Z,17.40
2019-01-06T14:14:39.889Z,16.23
2019-01-06T14:17:33.982Z,15.10
2019-01-06T14:20:29.931Z,16.40
2019-01-06T14:26:14.036Z,12.03
2019-01-06T14:29:00.699Z,12.00
2019-01-06T14:32:01.274Z,13.17
2019-01-06T14:34:48.354Z,12.33
2019-01-06T14:37:35.563Z,14.93
2019-01-06T14:40:23.444Z,12.10
2019-01-06T14:43:06.970Z,13.33
2019-01-06T14:45:53.659Z,12.37
2019-01-06T14:48:51.036Z,14.47
2019-01-06T14:51:35.354Z,13.60
2019-01-06T14:54:22.395Z,8.47
2019-01-06T15:00:15.212Z,15.90
2019-01-06T15:03:01.952Z,15.30
2019-01-06T15:06:05.140Z,15.07
2019-01-06T15:08:53.557Z,12.73
2019-01-06T15:11:40.158Z,12.90
2019-01-06T15:14:26.962Z,13.10
2019-01-06T15:17:13.674Z,14.73
2019-01-06T15:20:04.950Z,13.30
2019-01-06T15:22:51.741Z,16.27
2019-01-06T15:25:58.726Z,15.80
2019-01-06T15:28:56.264Z,16.23
2019-01-06T15:31:44.638Z,17.40
2019-01-06T15:34:44.946Z,14.20
2019-01-06T15:37:35.698Z,15.67
2019-01-06T15:40:43.387Z,15.53
2019-01-06T15:43:49.632Z,15.10
2019-01-06T15:46:55.923Z,14.63
2019-01-06T15:49:44.128Z,16.90
2019-01-06T15:52:30.825Z,17.60
2019-01-06T15:55:22.066Z,18.10
2019-01-06T15:58:13.383Z,20.23
2019-01-06T16:01:10.718Z,18.93
2019-01-06T16:04:13.334Z,17.07
2019-01-06T16:10:04.609Z,18.60
2019-01-06T16:12:55.624Z,18.63
2019-01-06T16:15:42.806Z,18.70
2019-01-06T16:18:39.613Z,19.03
2019-01-06T16:21:44.529Z,18.70
2019-01-06T16:24:50.676Z,18.83
2019-01-06T16:27:38.860Z,22.00
2019-01-06T16:33:26.023Z,18.57
2019-01-06T16:36:15.657Z,19.23
2019-01-06T16:39:02.173Z,19.00
2019-01-06T16:41:49.010Z,19.00
2019-01-06T16:44:40.299Z,21.63
2019-01-06T16:47:27.404Z,22.07
2019-01-06T16:50:30.930Z,18.37
2019-01-06T16:53:19.171Z,24.30
2019-01-06T16:56:10.411Z,20.37
2019-01-06T16:58:52.408Z,20.47
2019-01-06T17:01:43.451Z,19.00
2019-01-06T17:04:30.224Z,20.33
2019-01-06T17:07:11.323Z,21.30
2019-01-06T17:10:11.735Z,19.37
2019-01-06T17:12:58.610Z,18.13
2019-01-06T17:15:53.830Z,18.37
2019-01-06T17:18:49.482Z,21.33
2019-01-06T17:21:37.854Z,19.27
2019-01-06T17:24:38.331Z,20.47
2019-01-06T17:27:35.665Z,18.07
2019-01-06T17:33:37.007Z,19.63
2019-01-06T17:36:37.450Z,19.47
2019-01-06T17:39:44.565Z,16.00
2019-01-06T17:42:38.721Z,11.77
2019-01-06T17:45:25.799Z,17.83
2019-01-06T17:48:32.857Z,15.10
2019-01-06T17:51:24.419Z,14.97
2019-01-06T17:57:12.077Z,14.03
2019-01-06T18:00:12.499Z,15.97
2019-01-06T18:02:59.133Z,13.30
2019-01-06T18:05:59.463Z,14.83
2019-01-06T18:08:54.082Z,14.40
2019-01-06T18:11:41.863Z,14.70
2019-01-06T18:14:39.189Z,11.80
2019-01-06T18:17:31.663Z,12.67
2019-01-06T18:20:20.364Z,13.50
2019-01-06T18:26:26.872Z,13.20
2019-01-06T18:29:12.425Z,16.57
2019-01-06T18:32:00.794Z,13.83
2019-01-06T18:34:42.723Z,15.20
2019-01-06T18:37:33.871Z,15.10
2019-01-06T18:40:19.637Z,15.63
2019-01-06T18:43:10.995Z,14.47
2019-01-06T18:45:59.279Z,14.20
2019-01-06T18:48:53.316Z,13.43
2019-01-06T18:51:44.655Z,15.67
2019-01-06T18:54:32.956Z,14.17
2019-01-06T18:57:19.679Z,15.30
2019-01-06T19:00:11.391Z,15.30
2019-01-06T19:03:08.515Z,15.40
2019-01-06T19:06:06.058Z,15.13
2019-01-06T19:09:00.373Z,14.93
2019-01-06T19:12:07.497Z,19.83
2019-01-06T19:15:01.775Z,13.63
2019-01-06T19:17:50.430Z,14.70
2019-01-06T19:23:44.346Z,13.47
2019-01-06T19:26:38.713Z,13.07
2019-01-06T19:29:29.452Z,15.17
2019-01-06T19:32:17.255Z,13.43
2019-01-06T19:35:05.706Z,14.40
2019-01-06T19:38:05.956Z,12.83
2019-01-06T19:41:00.318Z,13.77
2019-01-06T19:43:54.741Z,11.53
2019-01-06T19:46:41.820Z,13.27
2019-01-06T19:49:28.092Z,13.43
2019-01-06T19:52:16.278Z,13.03
2019-01-06T19:55:08.830Z,14.07
2019-01-06T19:57:57.220Z,14.87
2019-01-06T20:00:45.293Z,15.13
2019-01-06T20:03:51.770Z,14.67
2019-01-06T20:06:42.836Z,6.97
2019-01-06T20:09:24.858Z,13.50
2019-01-06T20:12:11.654Z,14.43
2019-01-06T20:14:58.632Z,14.50
2019-01-06T20:17:56.105Z,14.33
2019-01-06T20:20:44.380Z,15.63
2019-01-06T20:23:32.563Z,16.07
2019-01-06T20:26:20.764Z,15.43
2019-01-06T20:29:14.274Z,15.47
2019-01-06T20:32:17.469Z,15.87
2019-01-06T20:35:11.637Z,15.30
2019-01-06T20:44:10.942Z,14.00
2019-01-06T20:50:08.389Z,13.20
2019-01-06T20:53:08.913Z,12.30
2019-01-06T20:56:03.484Z,10.70
2019-01-06T20:58:51.021Z,8.10
2019-01-06T21:01:57.558Z,9.07
2019-01-06T21:04:44.380Z,5.70
2019-01-06T21:07:26.110Z,9.50
2019-01-06T21:10:32.577Z,9.13
2019-01-06T21:13:20.746Z,8.70
2019-01-06T21:16:15.285Z,10.43
2019-01-06T21:19:02.141Z,11.20
2019-01-06T21:21:53.503Z,8.03
2019-01-06T21:24:45.566Z,12.43
2019-01-06T21:27:43.097Z,11.33
2019-01-06T21:30:29.998Z,17.00
2019-01-06T21:33:26.999Z,20.03
2019-01-06T21:36:15.209Z,26.23
2019-01-06T21:39:21.691Z,21.23
2019-01-06T21:45:03.288Z,16.33
2019-01-06T21:48:09.679Z,15.47
2019-01-06T21:51:00.979Z,18.30
2019-01-06T21:54:03.905Z,14.37
2019-01-06T21:59:52.323Z,16.20
2019-01-06T22:02:45.775Z,15.10
2019-01-06T22:05:49.370Z,16.50
2019-01-06T22:08:36.549Z,13.57
2019-01-06T22:11:40.038Z,12.63
2019-01-06T22:14:28.345Z,13.77
2019-01-06T22:17:19.377Z,13.13
2019-01-06T22:20:22.482Z,11.30
2019-01-06T22:23:10.688Z,8.87
2019-01-06T22:26:08.100Z,8.40
2019-01-06T22:29:02.502Z,9.63
2019-01-06T22:32:07.010Z,8.77
2019-01-06T22:34:58.115Z,9.20
2019-01-06T22:37:44.925Z,9.40
2019-01-06T22:40:39.406Z,10.30
2019-01-06T22:46:51.790Z,12.20
2019-01-06T22:49:58.138Z,11.13
2019-01-06T22:52:49.166Z,13.50
2019-01-06T22:55:35.603Z,14.67
2019-01-06T22:58:39.177Z,15.97
2019-01-06T23:01:33.718Z,14.87
2019-01-06T23:04:22.107Z,15.00
2019-01-06T23:07:14.685Z,16.53
2019-01-06T23:10:09.886Z,15.93
2019-01-06T23:13:16.544Z,15.77
2019-01-06T23:16:04.788Z,13.47
2019-01-06T23:18:51.449Z,17.30
2019-01-06T23:21:42.741Z,15.73
2019-01-06T23:24:55.918Z,15.20
2019-01-06T23:27:53.037Z,14.13
2019-01-06T23:30:56.312Z,16.13
2019-01-06T23:36:35.521Z,13.93
2019-01-06T23:39:34.156Z,10.27
2019-01-06T23:42:21.172Z,16.00
2019-01-06T23:45:12.593Z,15.50
2019-01-06T23:48:07.086Z,15.93
2019-01-06T23:50:55.412Z,14.30
2019-01-06T23:53:43.781Z,10.47
2019-01-06T23:56:38.990Z,14.40
